Cromberg, California
Current Conditions -  °F | °C
As of 9:22 AM on Sunday 21 Dec 2014 (Local Time) from KBLU Reporting Station
Moderate Fog Moderate Fog  
Wind Chill: 40°   Ceiling: 600
Heat Index: 44°   Visibility: 0.25mi
Dew Point: 41°   Wind: 7mph
Humidity: 89%   Direction: 170°S
Pressure: 30.34"   Gusts: NA
Location:  39.7722°N, 120.711°W
Report Text: KBLU 211722Z AUTO 17006KT 1/4SM FG VV006 07/05 A3034 RMK AO2 RAB1655E09 P0001 T00670050
Loading
Personal Weather Stations






























Interactive Weather Map New forecast layout! Learn more

10-Day Weather Forecast

Advertisements
Track Severe Weather on mobile